Flight Track Log - Related Links

Times and Time Zones

All times are in EDT time to prevent confusion due to time zone crossing. See the CPA80 flight status page for this flight to view local times or setup timezone preferences in your user account.

Time Position Orientation Groundspeed Altitude Reporting Facility
EDT Latitude Longitude Course Direction KTS MPH feet Rate Location/Type
Tue 04:09:51 PM 61.0000 -150.2000 100° East 280 322 7,700  Level Anchorage Center
Tue 04:10:51 PM 60.9667 -150.0667 117° Southeast 290 334 10,100 2,300 Climbing Anchorage Center
Tue 04:11:51 PM 60.9333 -149.9000 112° Southeast 320 368 12,300 2,200 Climbing Anchorage Center
Tue 04:12:00 PM 60.9053 -148.4030 100° East  Level FlightAware Approximate
Tue 04:12:51 PM 60.9167 -149.7167 101° East 350 403 14,500  Level Anchorage Center
Tue 04:13:00 PM 60.8801 -148.1266 100° East  Level FlightAware Approximate
Tue 04:13:51 PM 60.8833 -149.5167 109° East 360 414 16,800  Level Anchorage Center
Tue 04:14:00 PM 60.8570 -147.8496 100° East  Level FlightAware Approximate
Tue 04:14:51 PM 60.8667 -149.3000 99° East 400 460 17,900  Level Anchorage Center
Tue 04:15:52 PM 60.8500 -149.0500 98° East 440 506 18,800 1,300 Climbing Anchorage Center
Tue 04:16:51 PM 60.8500 -148.7667 90° East 490 564 20,500 1,700 Climbing Anchorage Center
Tue 04:17:52 PM 60.8333 -148.4833 97° East 500 575 22,200 1,686 Climbing Anchorage Center
Tue 04:18:52 PM 60.8167 -148.2000 97° East 520 598 23,900 1,600 Climbing Anchorage Center
Tue 04:19:52 PM 60.8167 -147.8833 90° East 530 610 25,400 1,400 Climbing Anchorage Center
Tue 04:20:52 PM 60.8000 -147.5333 95° East 550 633 26,700 1,400 Climbing Anchorage Center
Tue 04:21:52 PM 60.7833 -147.2333 96° East 550 633 28,200 1,700 Climbing Anchorage Center
Tue 04:22:52 PM 60.7667 -146.9167 96° East 560 644 30,100 1,686 Climbing Anchorage Center
Tue 04:23:53 PM 60.7500 -146.6000 96° East 550 633 31,600 1,438 Climbing Anchorage Center
Tue 04:24:53 PM 60.7333 -146.2833 96° East 550 633 33,000 700 Climbing Anchorage Center
Tue 04:25:53 PM 60.7167 -145.9833 96° East 550 633 33,000  Level Anchorage Center
Tue 04:26:53 PM 60.6833 -145.6667 102° East 550 633 33,000  Level Anchorage Center
Tue 04:27:53 PM 60.6667 -145.3500 96° East 550 633 33,000  Level Anchorage Center
Tue 04:28:53 PM 60.6500 -145.0333 96° East 550 633 33,000  Level Anchorage Center
Tue 04:29:53 PM 60.6333 -144.7167 96° East 560 644 33,000  Level Anchorage Center
Tue 04:30:53 PM 60.6000 -144.4000 102° East 550 633 33,000  Level Anchorage Center
Tue 04:31:53 PM 60.5833 -144.0833 96° East 560 644 33,000  Level Anchorage Center
Tue 04:32:53 PM 60.5500 -143.7833 103° East 550 633 33,000  Level Anchorage Center
Tue 04:33:54 PM 60.5333 -143.4667 96° East 560 644 33,000  Level Anchorage Center
Tue 04:34:53 PM 60.5167 -143.1500 96° East 560 644 33,000  Level Anchorage Center
Tue 04:35:53 PM 60.4833 -142.8167 101° East 560 644 33,000  Level Anchorage Center
Tue 04:36:54 PM 60.4667 -142.5667 98° East 560 644 33,000  Level Anchorage Center
Tue 04:37:54 PM 60.4333 -142.2500 102° East 550 633 33,000  Level Anchorage Center
Tue 04:38:54 PM 60.4000 -141.9500 103° East 560 644 33,000  Level Anchorage Center
Tue 04:39:54 PM 60.3833 -141.6333 96° East 550 633 33,000  Level Anchorage Center
Tue 04:40:54 PM 60.3500 -141.3333 103° East 550 633 33,000  Level Anchorage Center
Tue 04:41:54 PM 60.3167 -141.0167 102° East 550 633 33,000  Level Anchorage Center
Tue 04:42:55 PM 60.2833 -140.7167 103° East 550 633 33,000  Level Anchorage Center
Tue 04:43:55 PM 60.2500 -140.4000 102° East 560 644 33,000  Level Anchorage Center
Tue 04:44:54 PM 60.2167 -140.1000 102° East 550 633 33,000  Level Anchorage Center
Tue 04:45:55 PM 60.1833 -139.7833 102° East 560 644 33,000  Level Anchorage Center
Tue 04:46:55 PM 60.1500 -139.4833 102° East 560 644 33,000  Level Anchorage Center
Tue 04:47:55 PM 60.1167 -139.1833 102° East 550 633 33,000  Level Anchorage Center
Tue 04:48:55 PM 60.0833 -138.8833 102° East 550 633 33,000  Level Anchorage Center
Tue 04:49:55 PM 60.0500 -138.5833 102° East 550 633 33,000  Level Anchorage Center
Tue 04:50:55 PM 60.0167 -138.2667 102° East 550 633 33,000  Level Anchorage Center
Tue 04:51:55 PM 59.9833 -137.9667 102° East 550 633 33,000  Level Anchorage Center
Tue 04:52:55 PM 59.9500 -137.6667 102° East 550 633 33,000  Level Anchorage Center
Tue 04:53:56 PM 59.9167 -137.3667 102° East 560 644 33,000  Level Anchorage Center
Tue 04:54:56 PM 59.8833 -137.0833 103° East 550 633 33,000  Level Anchorage Center
Tue 04:55:56 PM 59.8500 -136.7833 102° East 550 633 33,000  Level Anchorage Center
Tue 04:56:56 PM 59.8000 -136.4667 107° East 560 644 33,000  Level Anchorage Center
Tue 04:57:56 PM 59.7667 -136.1833 103° East 560 644 33,000  Level Anchorage Center
Tue 04:58:56 PM 59.7333 -135.8833 102° East 550 633 33,000  Level Anchorage Center
Tue 05:00:00 PM 59.6945 -135.6032 105° East  Level FlightAware Approximate
Tue 05:07:00 PM 59.4248 -133.7814 105° East  Level FlightAware Approximate
Tue 05:08:00 PM 59.3843 -133.5236 107° East  Level FlightAware Approximate
Tue 05:09:00 PM 59.3432 -133.2664 107° East  Level FlightAware Approximate
Tue 05:10:00 PM 59.3016 -133.0098 108° East  Level FlightAware Approximate
Tue 05:11:00 PM 59.2594 -132.7538 108° East  Level FlightAware Approximate
Tue 05:12:00 PM 59.2168 -132.4985 108° East  Level FlightAware Approximate
Tue 05:13:00 PM 59.1736 -132.2439 108° East  Level FlightAware Approximate
Tue 05:14:00 PM 59.1300 -131.9899 108° East  Level FlightAware Approximate
Tue 05:15:00 PM 59.0858 -131.7366 109° East  Level FlightAware Approximate
Tue 05:16:00 PM 59.0412 -131.4839 109° East  Level FlightAware Approximate
Tue 05:17:00 PM 58.9961 -131.2318 109° East  Level FlightAware Approximate
Tue 05:18:00 PM 58.9504 -130.9805 109° East  Level FlightAware Approximate
Tue 05:19:00 PM 58.9043 -130.7298 110° East  Level FlightAware Approximate
Tue 05:20:00 PM 58.8578 -130.4797 110° East  Level FlightAware Approximate
Tue 05:21:00 PM 58.8107 -130.2304 110° East  Level FlightAware Approximate
Tue 05:22:00 PM 58.7631 -129.9817 110° East  Level FlightAware Approximate
Tue 05:23:00 PM 58.7152 -129.7336 110° East  Level FlightAware Approximate
Tue 05:24:00 PM 58.6668 -129.4862 111° Southeast  Level FlightAware Approximate
Tue 05:25:00 PM 58.6180 -129.2395 111° Southeast  Level FlightAware Approximate
Tue 05:26:00 PM 58.5690 -128.9933 111° Southeast  Level FlightAware Approximate
Tue 05:27:00 PM 58.5204 -128.7471 111° Southeast  Level FlightAware Approximate
Tue 05:28:00 PM 58.4713 -128.5016 111° Southeast  Level FlightAware Approximate
Tue 05:29:00 PM 58.4218 -128.2567 111° Southeast  Level FlightAware Approximate
Tue 05:30:00 PM 58.3719 -128.0125 111° Southeast  Level FlightAware Approximate
Tue 05:31:00 PM 58.3216 -127.7689 111° Southeast  Level FlightAware Approximate
Tue 05:32:00 PM 58.2709 -127.5260 112° Southeast  Level FlightAware Approximate
Tue 05:33:00 PM 58.2197 -127.2838 112° Southeast  Level FlightAware Approximate
Tue 05:34:00 PM 58.1681 -127.0423 112° Southeast  Level FlightAware Approximate
Tue 05:35:00 PM 58.1160 -126.8015 112° Southeast  Level FlightAware Approximate
Tue 05:36:00 PM 58.0634 -126.5614 112° Southeast  Level FlightAware Approximate
Tue 05:37:00 PM 58.0103 -126.3221 113° Southeast  Level FlightAware Approximate
Tue 05:38:00 PM 57.9559 -126.0842 113° Southeast  Level FlightAware Approximate
Tue 05:39:00 PM 57.9010 -125.8471 113° Southeast  Level FlightAware Approximate
Tue 05:40:00 PM 57.8457 -125.6106 114° Southeast  Level FlightAware Approximate
Tue 05:41:00 PM 57.7900 -125.3749 114° Southeast  Level FlightAware Approximate
Tue 05:42:00 PM 57.7338 -125.1400 114° Southeast  Level FlightAware Approximate
Tue 05:43:00 PM 57.6770 -124.9058 115° Southeast  Level FlightAware Approximate
Tue 05:44:00 PM 57.6197 -124.6726 115° Southeast  Level FlightAware Approximate
Tue 05:45:00 PM 57.5619 -124.4400 115° Southeast  Level FlightAware Approximate
Tue 05:46:00 PM 57.5037 -124.2083 115° Southeast  Level FlightAware Approximate
Tue 05:47:00 PM 57.4450 -123.9772 115° Southeast  Level FlightAware Approximate
Tue 05:48:00 PM 57.3860 -123.7470 115° Southeast  Level FlightAware Approximate
Tue 05:49:00 PM 57.3265 -123.5174 116° Southeast  Level FlightAware Approximate
Tue 05:50:00 PM 57.2666 -123.2886 116° Southeast  Level FlightAware Approximate
Tue 05:51:00 PM 57.2063 -123.0605 116° Southeast  Level FlightAware Approximate
Tue 05:52:00 PM 57.1456 -122.8332 116° Southeast  Level FlightAware Approximate
Tue 05:53:00 PM 57.0845 -122.6067 116° Southeast  Level FlightAware Approximate
Tue 05:54:00 PM 57.0230 -122.3809 117° Southeast  Level FlightAware Approximate
Tue 05:55:00 PM 56.9610 -122.1558 117° Southeast  Level FlightAware Approximate
Tue 05:56:00 PM 56.8987 -121.9315 117° Southeast  Level FlightAware Approximate
Tue 05:56:15 PM 56.5000 -120.6500 118° Southeast 520 598 33,000  Level Edmonton Center
Tue 05:57:00 PM 56.8360 -121.7079 117° Southeast  Level FlightAware Approximate
Tue 05:57:15 PM 56.4167 -120.4000 121° Southeast 530 610 33,000  Level Edmonton Center
Tue 05:58:00 PM 56.7728 -121.4851 117° Southeast  Level FlightAware Approximate
Tue 05:58:15 PM 56.3500 -120.1500 116° Southeast 530 610 33,000  Level Edmonton Center
Tue 05:59:00 PM 56.7093 -121.2630 117° Southeast  Level FlightAware Approximate
Tue 05:59:15 PM 56.2667 -119.9333 125° Southeast 520 598 33,000  Level Edmonton Center
Tue 06:00:00 PM 56.6454 -121.0417 118° Southeast  Level FlightAware Approximate
Tue 06:00:15 PM 56.2167 -119.6833 110° East 520 598 33,000  Level Edmonton Center
Tue 06:01:00 PM 56.5811 -120.8211 118° Southeast  Level FlightAware Approximate
Tue 06:01:15 PM 56.1500 -119.4500 117° Southeast 520 598 33,000  Level Edmonton Center
Tue 06:02:15 PM 56.0667 -119.2333 125° Southeast 520 598 33,000  Level Edmonton Center
Tue 06:03:15 PM 56.0000 -119.0167 119° Southeast 520 598 33,000  Level Edmonton Center
Tue 06:04:15 PM 55.9333 -118.7667 115° Southeast 520 598 33,000  Level Edmonton Center
Tue 06:05:15 PM 55.8500 -118.5667 127° Southeast 520 598 33,000  Level Edmonton Center
Tue 06:06:15 PM 55.7833 -118.3167 115° Southeast 520 598 33,000  Level Edmonton Center
Tue 06:07:15 PM 55.7167 -118.1167 121° Southeast 510 587 33,000  Level Edmonton Center
Tue 06:08:15 PM 55.6333 -117.8667 120° Southeast 510 587 33,000  Level Edmonton Center
Tue 06:09:15 PM 55.5667 -117.6667 120° Southeast 510 587 33,000  Level Edmonton Center
Tue 06:10:15 PM 55.5000 -117.4333 117° Southeast 510 587 33,000  Level Edmonton Center
Tue 06:11:15 PM 55.4167 -117.2167 124° Southeast 510 587 33,000  Level Edmonton Center
Tue 06:12:15 PM 55.3500 -117.0167 120° Southeast 510 587 33,000  Level Edmonton Center
Tue 06:13:15 PM 55.2667 -116.7833 122° Southeast 510 587 33,000  Level Edmonton Center
Tue 06:14:15 PM 55.2000 -116.5833 120° Southeast 510 587 33,000  Level Edmonton Center
Tue 06:15:15 PM 55.1167 -116.3500 122° Southeast 510 587 33,000  Level Edmonton Center
Tue 06:16:15 PM 55.0333 -116.1500 126° Southeast 510 587 33,000  Level Edmonton Center
Tue 06:17:15 PM 54.9833 -115.9167 110° East 510 587 33,000  Level Edmonton Center
Tue 06:18:15 PM 54.9000 -115.7167 126° Southeast 510 587 33,000  Level Edmonton Center
Tue 06:19:15 PM 54.8167 -115.5167 126° Southeast 500 575 33,000  Level Edmonton Center
Tue 06:20:15 PM 54.7333 -115.3167 126° Southeast 510 587 33,000  Level Edmonton Center
Tue 06:21:15 PM 54.6500 -115.0833 122° Southeast 500 575 33,000  Level Edmonton Center
Tue 06:22:15 PM 54.5833 -114.9000 122° Southeast 500 575 33,000  Level Edmonton Center
Tue 06:23:15 PM 54.5167 -114.7000 120° Southeast 500 575 33,000  Level Edmonton Center
Tue 06:24:15 PM 54.4333 -114.4833 123° Southeast 500 575 33,000  Level Edmonton Center
Tue 06:25:15 PM 54.3667 -114.2833 120° Southeast 500 575 33,000  Level Edmonton Center
Tue 06:26:15 PM 54.2833 -114.0833 125° Southeast 500 575 33,000  Level Edmonton Center
Tue 06:27:15 PM 54.2167 -113.9000 122° Southeast 500 575 33,000  Level Edmonton Center
Tue 06:28:15 PM 54.1167 -113.6667 126° Southeast 500 575 33,000  Level Edmonton Center
Tue 06:29:15 PM 54.0500 -113.4833 122° Southeast 500 575 33,000  Level Edmonton Center
Tue 06:30:15 PM 53.9833 -113.3000 122° Southeast 490 564 33,000  Level Edmonton Center
Tue 06:31:15 PM 53.9000 -113.0833 123° Southeast 490 564 33,000  Level Edmonton Center
Tue 06:32:15 PM 53.8167 -112.8833 125° Southeast 500 575 33,000  Level Edmonton Center
Tue 06:33:15 PM 53.7333 -112.7000 127° Southeast 500 575 33,000  Level Edmonton Center
Tue 06:34:15 PM 53.6667 -112.5167 121° Southeast 490 564 33,000  Level Edmonton Center
Tue 06:35:15 PM 53.5833 -112.3333 127° Southeast 490 564 33,000  Level Edmonton Center
Tue 06:36:15 PM 53.5000 -112.1167 123° Southeast 490 564 33,000  Level Edmonton Center
Tue 06:37:15 PM 53.4333 -111.9333 121° Southeast 490 564 33,000 300 Level Edmonton Center
Tue 06:38:15 PM 53.3333 -111.7333 130° Southeast 490 564 33,600 850 Climbing Edmonton Center
Tue 06:39:15 PM 53.2667 -111.5667 124° Southeast 500 575 34,700 700 Climbing Edmonton Center
Tue 06:40:15 PM 53.1833 -111.3833 127° Southeast 500 575 35,000 150 Climbing Edmonton Center
Tue 06:41:15 PM 53.1000 -111.1667 123° Southeast 490 564 35,000  Level Edmonton Center
Tue 06:42:15 PM 53.0167 -110.9833 127° Southeast 490 564 35,000  Level Edmonton Center
Tue 06:43:15 PM 52.9500 -110.7833 119° Southeast 490 564 35,000  Level Edmonton Center
Tue 06:44:15 PM 52.9000 -110.5667 111° Southeast 500 575 35,000  Level Edmonton Center
Tue 06:45:15 PM 52.8667 -110.3500 104° East 500 575 35,000  Level Edmonton Center
Tue 06:46:15 PM 52.8333 -110.1167 103° East 490 564 35,000  Level Edmonton Center
Tue 06:47:11 PM 52.8000 -109.9667 110° East 500 575 35,000  Level Winnipeg Center
Tue 06:48:11 PM 52.7667 -109.7333 103° East 500 575 35,000  Level Winnipeg Center
Tue 06:49:11 PM 52.7167 -109.5333 112° Southeast 500 575 35,000  Level Winnipeg Center
Tue 06:50:11 PM 52.6667 -109.3000 109° East 500 575 35,000  Level Winnipeg Center
Tue 06:51:11 PM 52.6500 -109.0833 97° East 500 575 35,000  Level Winnipeg Center
Tue 06:52:11 PM 52.6000 -108.8500 109° East 500 575 35,000  Level Winnipeg Center
Tue 06:53:11 PM 52.5500 -108.6500 112° Southeast 500 575 35,000  Level Winnipeg Center
Tue 06:54:11 PM 52.5000 -108.4333 111° Southeast 490 564 35,000  Level Winnipeg Center
Tue 06:55:11 PM 52.4667 -108.2000 103° East 500 575 35,000  Level Winnipeg Center
Tue 06:56:11 PM 52.4333 -108.0000 105° East 500 575 35,000  Level Winnipeg Center
Tue 06:57:11 PM 52.3833 -107.7667 109° East 490 564 35,000  Level Winnipeg Center
Tue 06:58:11 PM 52.3333 -107.5667 112° Southeast 490 564 35,000  Level Winnipeg Center
Tue 06:59:11 PM 52.3000 -107.3667 105° East 490 564 35,000  Level Winnipeg Center
Tue 07:00:11 PM 52.2500 -107.1667 112° Southeast 490 564 35,000  Level Winnipeg Center
Tue 07:01:11 PM 52.2000 -106.9500 111° Southeast 490 564 35,000  Level Winnipeg Center
Tue 07:02:11 PM 52.1667 -106.7333 104° East 480 552 35,000  Level Winnipeg Center
Tue 07:03:11 PM 52.1167 -106.5333 112° Southeast 480 552 35,000  Level Winnipeg Center
Tue 07:04:11 PM 52.0833 -106.3000 103° East 500 575 35,000  Level Winnipeg Center
Tue 07:05:11 PM 52.0167 -106.1167 121° Southeast 490 564 35,000  Level Winnipeg Center
Tue 07:06:11 PM 51.9500 -105.9167 118° Southeast 490 564 35,000  Level Winnipeg Center
Tue 07:07:11 PM 51.8833 -105.7333 120° Southeast 490 564 35,000  Level Winnipeg Center
Tue 07:08:11 PM 51.8167 -105.5333 118° Southeast 490 564 35,000  Level Winnipeg Center
Tue 07:09:11 PM 51.7333 -105.3500 126° Southeast 490 564 35,000  Level Winnipeg Center
Tue 07:14:22 PM 51.5320 -104.7490 126° Southeast 488 562 35,000  Level FlightAware ADS-B
Tue 07:14:57 PM 51.4940 -104.6520 122° Southeast 488 562 35,000  Level FlightAware ADS-B
Tue 07:15:37 PM 51.4530 -104.5480 122° Southeast 488 562 35,000  Level FlightAware ADS-B
Tue 07:16:22 PM 51.2420 -104.0200 122° Southeast 488 562 35,000  Level FlightAware ADS-B
Tue 07:16:57 PM 51.2070 -103.9340 123° Southeast 488 562 35,000  Level FlightAware ADS-B
Tue 07:17:42 PM 51.1600 -103.8140 122° Southeast 488 562 35,000  Level FlightAware ADS-B
Tue 07:18:32 PM 51.1100 -103.6850 122° Southeast 488 562 35,000  Level FlightAware ADS-B
Tue 07:19:12 PM 51.0690 -103.5810 122° Southeast 488 562 35,000  Level FlightAware ADS-B
Tue 07:19:52 PM 51.0280 -103.4770 122° Southeast 488 562 35,000  Level FlightAware ADS-B
Tue 07:20:32 PM 50.9880 -103.3740 122° Southeast 488 562 35,000  Level FlightAware ADS-B
Tue 07:21:22 PM 50.9370 -103.2450 122° Southeast 488 562 35,000  Level FlightAware ADS-B
Tue 07:22:02 PM 50.8960 -103.1410 122° Southeast 488 562 35,000  Level FlightAware ADS-B
Tue 07:22:42 PM 50.8550 -103.0380 122° Southeast 488 562 35,000  Level FlightAware ADS-B
Tue 07:23:22 PM 50.8150 -102.9350 122° Southeast 488 562 35,000  Level FlightAware ADS-B
Tue 07:24:02 PM 50.7740 -102.8320 122° Southeast 488 562 35,000  Level FlightAware ADS-B
Tue 07:24:52 PM 50.7230 -102.7040 122° Southeast 488 562 35,000  Level FlightAware ADS-B
Tue 07:25:32 PM 50.6820 -102.6010 122° Southeast 488 562 35,000  Level FlightAware ADS-B
Tue 07:26:12 PM 50.6420 -102.4980 121° Southeast 488 562 35,000  Level FlightAware ADS-B
Tue 07:26:52 PM 50.6010 -102.3960 122° Southeast 488 562 35,000  Level FlightAware ADS-B
Tue 07:27:11 PM 50.4000 -102.0667 122° Southeast 490 564 35,000  Level Winnipeg Center
Tue 07:28:11 PM 50.3333 -101.9000 122° Southeast 490 564 35,000  Level Winnipeg Center
Tue 07:29:11 PM 50.2500 -101.7000 123° Southeast 490 564 35,000  Level Winnipeg Center
Tue 07:30:11 PM 50.1667 -101.5333 128° Southeast 490 564 35,000  Level Winnipeg Center
Tue 07:31:11 PM 50.1000 -101.3500 119° Southeast 500 575 35,000  Level Winnipeg Center
Tue 07:32:11 PM 50.0167 -101.1833 128° Southeast 500 575 35,000  Level Winnipeg Center
Tue 07:33:11 PM 49.9333 -101.0167 128° Southeast 500 575 35,000  Level Winnipeg Center
Tue 07:34:11 PM 49.8667 -100.8333 119° Southeast 500 575 35,000  Level Winnipeg Center
Tue 07:35:11 PM 49.7667 -100.6500 130° Southeast 500 575 35,000  Level Winnipeg Center
Tue 07:36:11 PM 49.6833 -100.4833 128° Southeast 500 575 35,000  Level Winnipeg Center
Tue 07:37:11 PM 49.6167 -100.3000 119° Southeast 500 575 35,000  Level Winnipeg Center
Tue 07:38:11 PM 49.5333 -100.1333 128° Southeast 510 587 35,000  Level Winnipeg Center
Tue 07:39:11 PM 49.4500 -99.9500 125° Southeast 510 587 35,000  Level Winnipeg Center
Tue 07:40:10 PM 49.3833 -99.8000 124° Southeast 510 587 35,000  Level Winnipeg Center
Tue 07:41:10 PM 49.2833 -99.6000 127° Southeast 510 587 35,000  Level Winnipeg Center
Tue 07:42:10 PM 49.2000 -99.4167 125° Southeast 510 587 35,000  Level Winnipeg Center
Tue 07:43:10 PM 49.1167 -99.2333 125° Southeast 510 587 35,000  Level Winnipeg Center
Tue 07:44:10 PM 49.0167 -99.0833 135° Southeast 510 587 35,000  Level Winnipeg Center
Tue 07:45:10 PM 48.9500 -98.9000 119° Southeast 510 587 35,000  Level Winnipeg Center
Tue 07:46:10 PM 48.8667 -98.7167 125° Southeast 510 587 35,000  Level Winnipeg Center
Tue 07:47:11 PM 48.7667 -98.5333 130° Southeast 510 587 35,000  Level Winnipeg Center
Tue 07:48:10 PM 48.6833 -98.3833 130° Southeast 520 598 35,000  Level Winnipeg Center
Tue 07:49:10 PM 48.6000 -98.2000 124° Southeast 520 598 35,000 -51 Level Winnipeg Center
Tue 07:50:07 PM 48.5392 -98.0514 122° Southeast 518 596 34,900 -50 Descending Minneapolis Center
Tue 07:51:09 PM 48.4519 -97.8811 128° Southeast 516 594 34,900 49 Level Minneapolis Center
Tue 07:52:10 PM 48.3567 -97.7258 133° Southeast 508 585 35,000  Climbing Minneapolis Center
Tue 07:53:36 PM 48.2389 -97.5561 136° Southeast 494 568 34,900 -41 Descending Minneapolis Center
Tue 07:54:38 PM 48.1208 -97.3833 136° Southeast 491 565 34,900  Level Minneapolis Center
Tue 07:55:40 PM 48.0236 -97.2400 135° Southeast 490 564 34,900 48 Level Minneapolis Center
Tue 07:56:42 PM 47.9050 -97.0703 136° Southeast 490 564 35,000 49 Climbing Minneapolis Center
Tue 07:57:43 PM 47.8069 -96.9272 136° Southeast 492 566 35,000  Level Minneapolis Center
Tue 07:58:45 PM 47.7275 -96.8136 136° Southeast 494 568 35,000  Level Minneapolis Center
Tue 07:59:47 PM 47.6083 -96.6431 136° Southeast 494 568 35,000 -49 Level Minneapolis Center
Tue 08:00:48 PM 47.5089 -96.5028 136° Southeast 493 567 34,900 -49 Descending Minneapolis Center
Tue 08:01:49 PM 47.4314 -96.3933 136° Southeast 488 562 34,900  Level Minneapolis Center
Tue 08:02:51 PM 47.3142 -96.2300 137° Southeast 484 557 34,900  Level Minneapolis Center
Tue 08:03:53 PM 47.2175 -96.0944 136° Southeast 482 555 34,900  Level Minneapolis Center
Tue 08:05:07 PM 47.1197 -95.9600 137° Southeast 482 555 34,900 44 Level Minneapolis Center
Tue 08:06:09 PM 46.9853 -95.7739 137° Southeast 481 554 35,000 49 Climbing Minneapolis Center
Tue 08:07:10 PM 46.8853 -95.6389 137° Southeast 487 560 35,000 -49 Level Minneapolis Center
Tue 08:08:12 PM 46.7869 -95.5053 137° Southeast 487 560 34,900  Descending Minneapolis Center
Tue 08:09:13 PM 46.6883 -95.3728 137° Southeast 483 556 35,000 49 Climbing Minneapolis Center
Tue 08:10:15 PM 46.5900 -95.2406 137° Southeast 484 557 35,000 -49 Level Minneapolis Center
Tue 08:11:16 PM 46.4906 -95.1069 137° Southeast 488 562 34,900  Descending Minneapolis Center
Tue 08:12:18 PM 46.3717 -94.9492 137° Southeast 486 559 35,000 49 Climbing Minneapolis Center
Tue 08:13:19 PM 46.2719 -94.8164 137° Southeast 487 560 35,000  Level Minneapolis Center
Tue 08:14:20 PM 46.1967 -94.7186 138° Southeast 488 562 35,000  Level Minneapolis Center
Tue 08:15:22 PM 46.0758 -94.5606 138° Southeast 489 563 35,000  Level Minneapolis Center
Tue 08:16:24 PM 45.9750 -94.4289 138° Southeast 492 566 35,000  Level Minneapolis Center
Tue 08:17:25 PM 45.8514 -94.2683 138° Southeast 498 573 35,000  Level Minneapolis Center
Tue 08:18:27 PM 45.7494 -94.1386 138° Southeast 495 570 35,000  Level Minneapolis Center
Tue 08:19:28 PM 45.6489 -94.0092 138° Southeast 489 563 35,000  Level Minneapolis Center
Tue 08:20:30 PM 45.5469 -93.8789 138° Southeast 491 565 35,000  Level Minneapolis Center
Tue 08:21:31 PM 45.4450 -93.7497 138° Southeast 491 565 35,000  Level Minneapolis Center
Tue 08:22:33 PM 45.3436 -93.6208 138° Southeast 490 564 35,000  Level Minneapolis Center
Tue 08:23:34 PM 45.2408 -93.4903 138° Southeast 493 567 35,000  Level Minneapolis Center
Tue 08:24:36 PM 45.1406 -93.3556 137° Southeast 497 572 35,000  Level Minneapolis Center
Tue 08:25:38 PM 45.0511 -93.1428 121° Southeast 518 596 35,000  Level Minneapolis Center
Tue 08:26:39 PM 44.9706 -92.9706 123° Southeast 519 597 35,000  Level Minneapolis Center
Tue 08:27:41 PM 44.8883 -92.8019 124° Southeast 516 594 35,000  Level Minneapolis Center
Tue 08:28:42 PM 44.8078 -92.6336 124° Southeast 516 594 35,000  Level Minneapolis Center
Tue 08:29:44 PM 44.7283 -92.4683 124° Southeast 512 589 35,000  Level Minneapolis Center
Tue 08:30:46 PM 44.6486 -92.3025 124° Southeast 511 588 35,000  Level Minneapolis Center
Tue 08:31:47 PM 44.5686 -92.1406 125° Southeast 508 585 35,000  Level Minneapolis Center
Tue 08:32:49 PM 44.4903 -91.9783 124° Southeast 505 581 35,000  Level Minneapolis Center
Tue 08:33:51 PM 44.4119 -91.8178 124° Southeast 503 579 35,000  Level Minneapolis Center
Tue 08:34:52 PM 44.3169 -91.6269 125° Southeast 502 578 35,000  Level Minneapolis Center
Tue 08:35:54 PM 44.2183 -91.4942 136° Southeast 496 571 35,000  Level Minneapolis Center
Tue 08:36:56 PM 44.1189 -91.3614 136° Southeast 496 571 35,000 -49 Level Minneapolis Center
Tue 08:37:57 PM 44.0267 -91.2269 134° Southeast 494 568 34,900 -732 Descending Minneapolis Center
Tue 08:38:59 PM 43.9294 -91.0928 135° Southeast 494 568 33,500 -1,355 Descending Minneapolis Center
Tue 08:40:01 PM 43.8319 -90.9561 135° Southeast 498 573 32,100 -1,355 Descending Minneapolis Center
Tue 08:41:03 PM 43.7489 -90.8031 127° Southeast 502 578 30,700 -1,317 Descending Minneapolis Center
Tue 08:42:04 PM 43.6692 -90.6053 119° Southeast 496 571 29,400 -1,317 Descending Minneapolis Center
Tue 08:43:06 PM 43.6044 -90.4450 119° Southeast 483 556 28,000 -1,113 Descending Minneapolis Center
Tue 08:44:08 PM 43.5414 -90.2900 119° Southeast 471 542 27,100 -968 Descending Minneapolis Center
Tue 08:45:10 PM 43.4750 -90.1314 120° Southeast 462 532 26,000 -1,220 Descending Minneapolis Center
Tue 08:46:11 PM 43.4144 -89.9831 119° Southeast 448 516 24,600 -1,415 Descending Minneapolis Center
Tue 08:47:13 PM 43.3525 -89.8347 120° Southeast 448 516 23,100 -1,532 Descending Minneapolis Center
Tue 08:47:45 PM 43.3122 -89.7397 120° Southeast 440 506 22,200 -1,340 Descending Chicago Center
Tue 08:48:47 PM 43.2536 -89.5975 119° Southeast 431 496 21,000 -1,355 Descending Chicago Center
Tue 08:49:49 PM 43.1936 -89.4600 121° Southeast 422 486 19,400 -1,694 Descending Chicago Center
Tue 08:50:51 PM 43.1328 -89.3294 123° Southeast 412 474 17,500 -1,500 Descending Chicago Center
Tue 08:51:53 PM 43.0444 -89.2289 140° Southeast 417 480 16,300 -1,065 Descending Chicago Center
Tue 08:52:55 PM 42.9414 -89.1150 141° Southeast 411 473 15,300 -968 Descending Chicago Center
Tue 08:53:57 PM 42.8533 -89.0189 141° Southeast 406 467 14,300 -774 Descending Chicago Center
Tue 08:54:59 PM 42.7642 -88.9211 141° Southeast 411 473 13,700 -726 Descending Chicago Center
Tue 08:56:01 PM 42.6772 -88.8278 142° Southeast 402 463 12,800 -823 Descending Chicago Center
Tue 08:57:03 PM 42.5919 -88.7331 141° Southeast 396 456 12,000 -1,113 Descending Chicago Center
Tue 08:58:05 PM 42.4972 -88.6325 142° Southeast 375 432 10,500 -968 Descending Chicago Center
Tue 08:59:07 PM 42.4264 -88.5550 141° Southeast 321 369 10,000 -732 Descending Chicago Center
Tue 09:00:08 PM 42.3772 -88.4858 134° Southeast 263 303 9,000 -878 Descending Chicago Center
Tue 09:01:10 PM 42.3617 -88.3911 102° East 254 292 8,200 -629 Descending Chicago Center
Tue 09:02:12 PM 42.3294 -88.3172 121° Southeast 246 283 7,700 -532 Descending Chicago Center
Tue 09:03:14 PM 42.2772 -88.2606 141° Southeast 242 278 7,100 -435 Descending Chicago Center
Tue 09:04:16 PM 42.2275 -88.2014 139° Southeast 203 234 6,800 -677 Descending Chicago Center
Tue 09:05:18 PM 42.1872 -88.1556 140° Southeast 192 221 5,700 -1,016 Descending Chicago Center
Tue 09:06:20 PM 42.1500 -88.1136 140° Southeast 181 208 4,700 -991 Descending Chicago Center
Tue 09:07:07 PM 42.1167 -88.0833 146° Southeast 171 197 3,900 -950 Descending Chicago TRACON
Tue 09:08:01 PM 42.0833 -88.0333 132° Southeast 170 196 3,100 -900 Descending Chicago TRACON
Tue 09:09:07 PM 42.0500 -88.0000 143° Southeast 166 191 2,100 -843 Descending Chicago TRACON
Tue 09:10:02 PM 42.0167 -87.9667 143° Southeast 158 182 1,400 -764 Descending Chicago TRACON
Tue 09:12:00 PM 41.9817 -87.9067 143° Southeast  Level Estimated
Tue 09:19:00 PM 41.9817 -87.9067 143° Southeast  Level Estimated

Login

Don't have an account? Register now (free) for customized features, flight alerts, and more!